createdAt,value
2018-03-21T00:00:05.528Z,-3.20
2018-03-21T00:01:05.467Z,-3.20
2018-03-21T00:02:05.218Z,-3.20
2018-03-21T00:03:05.485Z,-3.20
2018-03-21T00:04:04.788Z,-3.20
2018-03-21T00:05:04.766Z,-3.20
2018-03-21T00:06:04.934Z,-3.20
2018-03-21T00:07:04.790Z,-3.20
2018-03-21T00:08:04.822Z,-3.20
2018-03-21T00:09:04.903Z,-3.30
2018-03-21T00:10:04.701Z,-3.30
2018-03-21T00:11:05.615Z,-3.30
2018-03-21T00:12:05.272Z,-3.30
2018-03-21T00:13:04.625Z,-3.40
2018-03-21T00:14:04.820Z,-3.40
2018-03-21T00:15:04.581Z,-3.40
2018-03-21T00:16:04.722Z,-3.40
2018-03-21T00:17:04.761Z,-3.40
2018-03-21T00:18:05.068Z,-3.40
2018-03-21T00:19:05.442Z,-3.50
2018-03-21T00:20:10.485Z,-3.50
2018-03-21T00:21:05.379Z,-3.50
2018-03-21T00:22:05.594Z,-3.50
2018-03-21T00:23:05.559Z,-3.50
2018-03-21T00:24:05.704Z,-3.60
2018-03-21T00:25:05.202Z,-3.60
2018-03-21T00:26:05.071Z,-3.70
2018-03-21T00:27:05.732Z,-3.70
2018-03-21T00:28:04.968Z,-3.70
2018-03-21T00:29:05.019Z,-3.70
2018-03-21T00:30:04.925Z,-3.70
2018-03-21T00:31:04.999Z,-3.70
2018-03-21T00:32:05.110Z,-3.70
2018-03-21T00:33:05.253Z,-3.80
2018-03-21T00:34:04.668Z,-3.80
2018-03-21T00:35:04.594Z,-3.80
2018-03-21T00:36:05.050Z,-3.80
2018-03-21T00:37:05.042Z,-3.80
2018-03-21T00:38:05.586Z,-3.90
2018-03-21T00:39:05.244Z,-3.90
2018-03-21T00:40:05.509Z,-3.90
2018-03-21T00:41:04.930Z,-4.00
2018-03-21T00:42:04.979Z,-4.00
2018-03-21T00:43:04.979Z,-4.00
2018-03-21T00:44:05.380Z,-4.10
2018-03-21T00:45:05.043Z,-4.10
2018-03-21T00:46:04.818Z,-4.10
2018-03-21T00:47:05.317Z,-4.20
2018-03-21T00:48:04.985Z,-4.20
2018-03-21T00:49:05.644Z,-4.20
2018-03-21T00:50:05.670Z,-4.20
2018-03-21T00:51:05.361Z,-4.30
2018-03-21T00:52:05.528Z,-4.30
2018-03-21T00:53:05.367Z,-4.30
2018-03-21T00:54:05.055Z,-4.30
2018-03-21T00:55:05.160Z,-4.40
2018-03-21T00:56:04.892Z,-4.40
2018-03-21T00:57:05.204Z,-4.40
2018-03-21T00:58:04.969Z,-4.40
2018-03-21T00:59:05.446Z,-4.50
2018-03-21T01:00:05.442Z,-4.50
2018-03-21T01:01:05.123Z,-4.50
2018-03-21T01:02:05.427Z,-4.60
2018-03-21T01:03:05.376Z,-4.60
2018-03-21T01:04:05.297Z,-4.60
2018-03-21T01:05:05.186Z,-4.60
2018-03-21T01:06:05.289Z,-4.70
2018-03-21T01:07:05.191Z,-4.70
2018-03-21T01:08:05.662Z,-4.70
2018-03-21T01:09:04.702Z,-4.80
2018-03-21T01:10:05.182Z,-4.80
2018-03-21T01:11:05.109Z,-4.80
2018-03-21T01:12:10.553Z,-4.90
2018-03-21T01:13:05.458Z,-4.90
2018-03-21T01:14:05.510Z,-4.90
2018-03-21T01:15:05.610Z,-4.90
2018-03-21T01:16:05.359Z,-5.00
2018-03-21T01:17:05.342Z,-5.00
2018-03-21T01:18:05.425Z,-5.00
2018-03-21T01:19:05.094Z,-5.00
2018-03-21T01:20:05.482Z,-5.10
2018-03-21T01:21:05.725Z,-5.10
2018-03-21T01:22:04.868Z,-5.10
2018-03-21T01:23:04.991Z,-5.10
2018-03-21T01:24:04.984Z,-5.10
2018-03-21T01:25:04.809Z,-5.20
2018-03-21T01:26:04.787Z,-5.20
2018-03-21T01:27:05.062Z,-5.20
2018-03-21T01:28:04.969Z,-5.20
2018-03-21T01:29:05.225Z,-5.20
2018-03-21T01:30:05.255Z,-5.30
2018-03-21T01:31:05.221Z,-5.30
2018-03-21T01:32:05.333Z,-5.30
2018-03-21T01:33:05.365Z,-5.30
2018-03-21T01:34:05.453Z,-5.30
2018-03-21T01:35:05.672Z,-5.40
2018-03-21T01:36:05.482Z,-5.40
2018-03-21T01:37:05.749Z,-5.40
2018-03-21T01:38:05.174Z,-5.40
2018-03-21T01:39:05.239Z,-5.50
2018-03-21T01:40:05.215Z,-5.50
2018-03-21T01:41:04.630Z,-5.50
2018-03-21T01:42:05.232Z,-5.50
2018-03-21T01:43:05.285Z,-5.50
2018-03-21T01:44:04.863Z,-5.50
2018-03-21T01:45:05.005Z,-5.60
2018-03-21T01:46:05.067Z,-5.60
2018-03-21T01:47:04.855Z,-5.60
2018-03-21T01:48:04.864Z,-5.60
2018-03-21T01:49:04.872Z,-5.70
2018-03-21T01:50:05.665Z,-5.70
2018-03-21T01:51:05.200Z,-5.70
2018-03-21T01:52:04.921Z,-5.80
2018-03-21T01:53:04.971Z,-5.80
2018-03-21T01:54:05.529Z,-5.80
2018-03-21T01:55:05.210Z,-5.80
2018-03-21T01:56:04.957Z,-5.80
2018-03-21T01:57:04.882Z,-5.90
2018-03-21T01:58:04.970Z,-5.90
2018-03-21T01:59:05.675Z,-5.90
2018-03-21T02:00:05.546Z,-5.90
2018-03-21T02:01:05.573Z,-5.90
2018-03-21T02:02:05.306Z,-6.00
2018-03-21T02:03:05.556Z,-6.00
2018-03-21T02:04:05.277Z,-6.00
2018-03-21T02:05:05.054Z,-6.00
2018-03-21T02:06:05.528Z,-6.10
2018-03-21T02:07:05.702Z,-6.10
2018-03-21T02:08:05.541Z,-6.10
2018-03-21T02:09:05.178Z,-6.10
2018-03-21T02:10:05.592Z,-6.20
2018-03-21T02:11:05.261Z,-6.20
2018-03-21T02:12:05.055Z,-6.20
2018-03-21T02:13:05.205Z,-6.20
2018-03-21T02:14:05.652Z,-6.20
2018-03-21T02:15:05.493Z,-6.20
2018-03-21T02:16:05.368Z,-6.20
2018-03-21T02:17:05.579Z,-6.20
2018-03-21T02:18:04.984Z,-6.30
2018-03-21T02:19:05.176Z,-6.20
2018-03-21T02:20:05.065Z,-6.20
2018-03-21T02:21:05.015Z,-6.20
2018-03-21T02:22:04.697Z,-6.30
2018-03-21T02:23:05.089Z,-6.30
2018-03-21T02:24:05.141Z,-6.30
2018-03-21T02:25:04.768Z,-6.30
2018-03-21T02:26:05.262Z,-6.30
2018-03-21T02:27:05.218Z,-6.30
2018-03-21T02:28:04.753Z,-6.30
2018-03-21T02:29:05.781Z,-6.30
2018-03-21T02:30:05.395Z,-6.40
2018-03-21T02:31:05.515Z,-6.40
2018-03-21T02:32:05.702Z,-6.40
2018-03-21T02:33:04.820Z,-6.40
2018-03-21T02:34:05.437Z,-6.40
2018-03-21T02:35:05.338Z,-6.40
2018-03-21T02:36:05.385Z,-6.40
2018-03-21T02:37:05.124Z,-6.50
2018-03-21T02:38:05.527Z,-6.50
2018-03-21T02:39:05.285Z,-6.50
2018-03-21T02:40:05.144Z,-6.50
2018-03-21T02:41:04.804Z,-6.50
2018-03-21T02:42:04.710Z,-6.50
2018-03-21T02:43:05.538Z,-6.50
2018-03-21T02:44:05.573Z,-6.50
2018-03-21T02:45:05.778Z,-6.50
2018-03-21T02:46:04.844Z,-6.50
2018-03-21T02:47:04.778Z,-6.60
2018-03-21T02:48:05.005Z,-6.60
2018-03-21T02:49:04.991Z,-6.60
2018-03-21T02:50:05.031Z,-6.60
2018-03-21T02:51:05.804Z,-6.60
2018-03-21T02:52:04.913Z,-6.60
2018-03-21T02:53:04.750Z,-6.60
2018-03-21T02:54:08.520Z,-6.70
2018-03-21T02:55:05.463Z,-6.70
2018-03-21T02:56:04.789Z,-6.70
2018-03-21T02:57:05.619Z,-6.80
2018-03-21T02:58:04.925Z,-6.80
2018-03-21T02:59:05.022Z,-6.80
2018-03-21T03:00:05.635Z,-6.80
2018-03-21T03:01:04.632Z,-6.80
2018-03-21T03:02:04.765Z,-6.90
2018-03-21T03:03:05.423Z,-6.90
2018-03-21T03:04:05.278Z,-6.90
2018-03-21T03:05:06.404Z,-6.90
2018-03-21T03:06:05.565Z,-6.90
2018-03-21T03:07:04.830Z,-6.90
2018-03-21T03:08:04.590Z,-7.00
2018-03-21T03:09:05.248Z,-7.00
2018-03-21T03:10:05.012Z,-7.00
2018-03-21T03:11:04.789Z,-7.00
2018-03-21T03:12:04.947Z,-7.00
2018-03-21T03:13:04.812Z,-7.10
2018-03-21T03:14:05.498Z,-7.10
2018-03-21T03:15:05.091Z,-7.10
2018-03-21T03:16:05.366Z,-7.10
2018-03-21T03:17:05.421Z,-7.20
2018-03-21T03:18:04.710Z,-7.20
2018-03-21T03:19:05.572Z,-7.20
2018-03-21T03:20:05.597Z,-7.20
2018-03-21T03:21:04.677Z,-7.20
2018-03-21T03:22:05.397Z,-7.20
2018-03-21T03:23:05.433Z,-7.20
2018-03-21T03:24:05.519Z,-7.20
2018-03-21T03:25:05.037Z,-7.30
2018-03-21T03:26:05.116Z,-7.30
2018-03-21T03:27:04.678Z,-7.30
2018-03-21T03:28:05.563Z,-7.30
2018-03-21T03:29:05.338Z,-7.40
2018-03-21T03:30:04.751Z,-7.40
2018-03-21T03:31:05.313Z,-7.40
2018-03-21T03:32:05.552Z,-7.50
2018-03-21T03:33:05.394Z,-7.50
2018-03-21T03:34:05.066Z,-7.50
2018-03-21T03:35:05.220Z,-7.50
2018-03-21T03:36:05.270Z,-7.50
2018-03-21T03:37:05.541Z,-7.50
2018-03-21T03:38:05.624Z,-7.50
2018-03-21T03:39:05.234Z,-7.50
2018-03-21T03:40:05.120Z,-7.50
2018-03-21T03:41:05.697Z,-7.60
2018-03-21T03:42:04.809Z,-7.60
2018-03-21T03:43:05.514Z,-7.60
2018-03-21T03:44:04.995Z,-7.60
2018-03-21T03:45:05.033Z,-7.60
2018-03-21T03:46:05.592Z,-7.60
2018-03-21T03:47:05.387Z,-7.60
2018-03-21T03:48:05.267Z,-7.70
2018-03-21T03:49:04.863Z,-7.70
2018-03-21T03:50:05.491Z,-7.70
2018-03-21T03:51:05.423Z,-7.70
2018-03-21T03:52:04.735Z,-7.70
2018-03-21T03:53:04.639Z,-7.70
2018-03-21T03:54:04.768Z,-7.70
2018-03-21T03:55:05.484Z,-7.80
2018-03-21T03:56:05.455Z,-7.80
2018-03-21T03:57:05.169Z,-7.80
2018-03-21T03:58:04.896Z,-7.80
2018-03-21T03:59:05.729Z,-7.80
2018-03-21T04:00:04.612Z,-7.80
2018-03-21T04:01:04.802Z,-7.80
2018-03-21T04:02:04.856Z,-7.90
2018-03-21T04:03:05.042Z,-7.80
2018-03-21T04:04:04.948Z,-7.90
2018-03-21T04:05:04.590Z,-7.90
2018-03-21T04:06:04.616Z,-7.90
2018-03-21T04:07:05.301Z,-7.90
2018-03-21T04:08:05.482Z,-7.90
2018-03-21T04:09:05.386Z,-7.90
2018-03-21T04:10:05.442Z,-7.90
2018-03-21T04:11:05.493Z,-7.90
2018-03-21T04:12:05.762Z,-7.90
2018-03-21T04:13:04.662Z,-7.90
2018-03-21T04:14:05.625Z,-7.90
2018-03-21T04:15:05.222Z,-8.00
2018-03-21T04:16:05.171Z,-8.00
2018-03-21T04:17:05.146Z,-8.00
2018-03-21T04:18:05.065Z,-8.00
2018-03-21T04:19:04.798Z,-8.00
2018-03-21T04:20:05.373Z,-8.00
2018-03-21T04:21:05.084Z,-8.00
2018-03-21T04:22:04.866Z,-8.00
2018-03-21T04:23:04.693Z,-8.10
2018-03-21T04:24:04.780Z,-8.10
2018-03-21T04:25:04.817Z,-8.10
2018-03-21T04:26:04.755Z,-8.10
2018-03-21T04:27:05.005Z,-8.10
2018-03-21T04:28:04.725Z,-8.10
2018-03-21T04:29:05.431Z,-8.10
2018-03-21T04:30:05.092Z,-8.10
2018-03-21T04:31:04.800Z,-8.10
2018-03-21T04:32:05.032Z,-8.10
2018-03-21T04:33:05.242Z,-8.10
2018-03-21T04:34:04.867Z,-8.10
2018-03-21T04:35:05.172Z,-8.20
2018-03-21T04:36:04.898Z,-8.10
2018-03-21T04:37:05.008Z,-8.20
2018-03-21T04:38:04.870Z,-8.20
2018-03-21T04:39:05.206Z,-8.20
2018-03-21T04:40:04.962Z,-8.20
2018-03-21T04:41:04.852Z,-8.20
2018-03-21T04:42:05.356Z,-8.20
2018-03-21T04:43:04.810Z,-8.20
2018-03-21T04:44:05.134Z,-8.20
2018-03-21T04:45:05.196Z,-8.20
2018-03-21T04:46:05.545Z,-8.20
2018-03-21T04:47:05.044Z,-8.30
2018-03-21T04:48:05.357Z,-8.20
2018-03-21T04:49:04.860Z,-8.20
2018-03-21T04:50:04.863Z,-8.30
2018-03-21T04:51:04.621Z,-8.30
2018-03-21T04:52:04.942Z,-8.30
2018-03-21T04:53:04.952Z,-8.30
2018-03-21T04:54:05.854Z,-8.30
2018-03-21T04:55:05.048Z,-8.30
2018-03-21T04:56:04.799Z,-8.30
2018-03-21T04:57:05.499Z,-8.40
2018-03-21T04:58:05.392Z,-8.40
2018-03-21T04:59:04.695Z,-8.40
2018-03-21T05:00:05.472Z,-8.50
2018-03-21T05:01:04.920Z,-8.50
2018-03-21T05:02:05.609Z,-8.50
2018-03-21T05:03:05.470Z,-8.50
2018-03-21T05:04:05.434Z,-8.50
2018-03-21T05:05:05.411Z,-8.50
2018-03-21T05:06:05.263Z,-8.50
2018-03-21T05:07:05.107Z,-8.50
2018-03-21T05:08:04.905Z,-8.50
2018-03-21T05:09:05.021Z,-8.50
2018-03-21T05:10:05.088Z,-8.50
2018-03-21T05:11:05.127Z,-8.50
2018-03-21T05:12:04.901Z,-8.50
2018-03-21T05:13:04.829Z,-8.50
2018-03-21T05:14:05.619Z,-8.50
2018-03-21T05:15:05.553Z,-8.50
2018-03-21T05:16:04.887Z,-8.50
2018-03-21T05:17:05.502Z,-8.50
2018-03-21T05:18:05.603Z,-8.50
2018-03-21T05:19:05.183Z,-8.50
2018-03-21T05:20:04.958Z,-8.50
2018-03-21T05:21:05.347Z,-8.50
2018-03-21T05:22:05.318Z,-8.50
2018-03-21T05:23:05.500Z,-8.50
2018-03-21T05:24:05.494Z,-8.40
2018-03-21T05:25:05.461Z,-8.40
2018-03-21T05:26:05.501Z,-8.40
2018-03-21T05:27:05.676Z,-8.40
2018-03-21T05:28:04.927Z,-8.40
2018-03-21T05:29:04.820Z,-8.40
2018-03-21T05:30:05.671Z,-8.40
2018-03-21T05:31:05.045Z,-8.40
2018-03-21T05:32:04.980Z,-8.40
2018-03-21T05:33:04.942Z,-8.40
2018-03-21T05:34:04.994Z,-8.40
2018-03-21T05:35:05.202Z,-8.30
2018-03-21T05:36:05.113Z,-8.30
2018-03-21T05:37:05.262Z,-8.30
2018-03-21T05:38:05.146Z,-8.30
2018-03-21T05:39:05.025Z,-8.30
2018-03-21T05:40:04.707Z,-8.30
2018-03-21T05:41:05.601Z,-8.30
2018-03-21T05:42:05.396Z,-8.30
2018-03-21T05:43:04.821Z,-8.30
2018-03-21T05:44:04.702Z,-8.30
2018-03-21T05:45:04.748Z,-8.20
2018-03-21T05:46:05.614Z,-8.20
2018-03-21T05:47:05.032Z,-8.20
2018-03-21T05:48:05.627Z,-8.20
2018-03-21T05:49:04.857Z,-8.20
2018-03-21T05:50:04.690Z,-8.10
2018-03-21T05:51:05.273Z,-8.10
2018-03-21T05:52:05.249Z,-8.10
2018-03-21T05:53:05.517Z,-8.10
2018-03-21T05:54:04.916Z,-8.00
2018-03-21T05:55:05.199Z,-8.00
2018-03-21T05:56:05.489Z,-8.00
2018-03-21T05:57:04.706Z,-8.00
2018-03-21T05:58:05.368Z,-7.90
2018-03-21T05:59:05.170Z,-7.90
2018-03-21T06:00:04.972Z,-7.90
2018-03-21T06:01:04.613Z,-7.90
2018-03-21T06:02:10.272Z,-7.80
2018-03-21T06:03:05.293Z,-7.80
2018-03-21T06:04:05.040Z,-7.80
2018-03-21T06:05:04.865Z,-7.70
2018-03-21T06:06:05.361Z,-7.70
2018-03-21T06:07:09.552Z,-7.60
2018-03-21T06:08:05.575Z,-7.60
2018-03-21T06:09:04.770Z,-7.60
2018-03-21T06:10:04.903Z,-7.50
2018-03-21T06:11:04.833Z,-7.50
2018-03-21T06:12:10.396Z,-7.40
2018-03-21T06:13:05.234Z,-7.40
2018-03-21T06:14:04.682Z,-7.30
2018-03-21T06:15:04.710Z,-7.20
2018-03-21T06:16:05.506Z,-7.20
2018-03-21T06:17:04.795Z,-7.10
2018-03-21T06:18:05.270Z,-7.10
2018-03-21T06:19:05.078Z,-7.00
2018-03-21T06:20:05.410Z,-6.90
2018-03-21T06:21:05.376Z,-6.80
2018-03-21T06:22:04.661Z,-6.80
2018-03-21T06:23:05.374Z,-6.70
2018-03-21T06:24:05.044Z,-6.60
2018-03-21T06:25:05.057Z,-6.50
2018-03-21T06:26:04.630Z,-6.40
2018-03-21T06:27:05.801Z,-6.30
2018-03-21T06:28:05.506Z,-6.30
2018-03-21T06:29:05.534Z,-6.20
2018-03-21T06:30:05.214Z,-6.10
2018-03-21T06:31:04.819Z,-6.00
2018-03-21T06:32:05.376Z,-5.90
2018-03-21T06:33:05.515Z,-5.80
2018-03-21T06:34:05.443Z,-5.70
2018-03-21T06:35:05.336Z,-5.60
2018-03-21T06:36:05.404Z,-5.50
2018-03-21T06:37:04.817Z,-5.40
2018-03-21T06:38:05.406Z,-5.30
2018-03-21T06:39:05.588Z,-5.20
2018-03-21T06:40:04.752Z,-5.10
2018-03-21T06:41:04.816Z,-5.00
2018-03-21T06:42:04.977Z,-4.80
2018-03-21T06:43:04.951Z,-4.70
2018-03-21T06:44:05.002Z,-4.60
2018-03-21T06:45:04.948Z,-4.40
2018-03-21T06:46:04.701Z,-4.20
2018-03-21T06:47:05.403Z,-4.10
2018-03-21T06:48:05.240Z,-3.90
2018-03-21T06:49:05.408Z,-3.70
2018-03-21T06:50:05.355Z,-3.60
2018-03-21T06:51:05.243Z,-3.40
2018-03-21T06:52:05.148Z,-3.20
2018-03-21T06:53:04.777Z,-3.10
2018-03-21T06:54:04.589Z,-2.90
2018-03-21T06:55:05.130Z,-2.80
2018-03-21T06:56:05.633Z,-2.60
2018-03-21T06:57:05.647Z,-2.50
2018-03-21T06:58:05.318Z,-2.40
2018-03-21T06:59:05.035Z,-2.30
2018-03-21T07:00:04.961Z,-2.20
2018-03-21T07:01:04.655Z,-2.10
2018-03-21T07:02:05.351Z,-2.00
2018-03-21T07:03:05.431Z,-1.90
2018-03-21T07:04:05.628Z,-1.80
2018-03-21T07:05:05.228Z,-1.80
2018-03-21T07:06:05.416Z,-1.70
2018-03-21T07:07:04.882Z,-1.60
2018-03-21T07:08:04.648Z,-1.50
2018-03-21T07:09:05.581Z,-1.50
2018-03-21T07:10:05.275Z,-1.40
2018-03-21T07:11:04.998Z,-1.40
2018-03-21T07:12:04.883Z,-1.30
2018-03-21T07:13:04.986Z,-1.20
2018-03-21T07:14:04.937Z,-1.20
2018-03-21T07:15:04.928Z,-1.10
2018-03-21T07:16:05.518Z,-1.00
2018-03-21T07:17:05.658Z,-0.90
2018-03-21T07:18:04.632Z,-0.90
2018-03-21T07:19:04.944Z,-0.80
2018-03-21T07:20:05.084Z,-0.70
2018-03-21T07:21:05.627Z,-0.60
2018-03-21T07:22:05.229Z,-0.50
2018-03-21T07:23:04.688Z,-0.40
2018-03-21T07:24:05.610Z,-0.40
2018-03-21T07:25:04.721Z,-0.30
2018-03-21T07:26:05.048Z,-0.20
2018-03-21T07:27:04.937Z,-0.20
2018-03-21T07:28:05.661Z,-0.10
2018-03-21T07:29:05.097Z,-0.10
2018-03-21T07:30:04.763Z,0.00
2018-03-21T07:31:04.982Z,0.00
2018-03-21T07:32:04.696Z,0.10
2018-03-21T07:33:05.378Z,0.20
2018-03-21T07:34:05.208Z,0.20
2018-03-21T07:35:05.192Z,0.30
2018-03-21T07:36:05.612Z,0.30
2018-03-21T07:37:05.396Z,0.40
2018-03-21T07:38:05.375Z,0.50
2018-03-21T07:39:05.218Z,0.50
2018-03-21T07:40:04.658Z,0.60
2018-03-21T07:41:05.397Z,0.60
2018-03-21T07:42:10.800Z,0.70
2018-03-21T07:43:04.749Z,0.80
2018-03-21T07:44:04.822Z,0.90
2018-03-21T07:45:04.863Z,0.90
2018-03-21T07:46:05.114Z,1.00
2018-03-21T07:47:05.145Z,1.00
2018-03-21T07:48:05.557Z,1.10
2018-03-21T07:49:05.765Z,1.20
2018-03-21T07:50:05.009Z,1.20
2018-03-21T07:51:05.455Z,1.20
2018-03-21T07:52:05.755Z,1.30
2018-03-21T07:53:05.109Z,1.30
2018-03-21T07:54:05.090Z,1.40
2018-03-21T07:55:04.899Z,1.40
2018-03-21T07:56:05.632Z,1.40
2018-03-21T07:57:05.618Z,1.50
2018-03-21T07:58:05.045Z,1.50
2018-03-21T07:59:04.884Z,1.50
2018-03-21T08:00:05.557Z,1.60
2018-03-21T08:01:05.283Z,1.60
2018-03-21T08:02:05.315Z,1.70
2018-03-21T08:03:04.769Z,1.70
2018-03-21T08:04:05.373Z,1.80
2018-03-21T08:05:05.076Z,1.90
2018-03-21T08:06:05.480Z,1.90
2018-03-21T08:07:05.324Z,1.90
2018-03-21T08:08:04.775Z,2.00
2018-03-21T08:09:05.565Z,2.00
2018-03-21T08:10:04.852Z,2.10
2018-03-21T08:11:05.262Z,2.10
2018-03-21T08:12:05.662Z,2.20
2018-03-21T08:13:04.855Z,2.20
2018-03-21T08:14:04.878Z,2.30
2018-03-21T08:15:05.333Z,2.30
2018-03-21T08:16:05.576Z,2.30
2018-03-21T08:17:04.873Z,2.30
2018-03-21T08:18:05.677Z,2.40
2018-03-21T08:19:04.797Z,2.40
2018-03-21T08:20:04.915Z,2.40
2018-03-21T08:21:05.254Z,2.50
2018-03-21T08:22:04.780Z,2.50
2018-03-21T08:23:04.836Z,2.50
2018-03-21T08:24:04.656Z,2.60
2018-03-21T08:25:05.162Z,2.60
2018-03-21T08:26:04.842Z,2.60
2018-03-21T08:27:05.078Z,2.60
2018-03-21T08:28:05.080Z,2.70
2018-03-21T08:29:05.151Z,2.70
2018-03-21T08:30:04.840Z,2.70
2018-03-21T08:31:04.865Z,2.70
2018-03-21T08:32:05.036Z,2.70
2018-03-21T08:33:05.026Z,2.80
2018-03-21T08:34:05.465Z,2.80
2018-03-21T08:35:05.238Z,2.80
2018-03-21T08:36:05.248Z,2.90
2018-03-21T08:37:05.482Z,2.90
2018-03-21T08:38:05.246Z,3.00
2018-03-21T08:39:05.460Z,3.00
2018-03-21T08:40:05.515Z,3.00
2018-03-21T08:41:05.231Z,3.00
2018-03-21T08:42:04.924Z,3.00
2018-03-21T08:43:05.437Z,3.10
2018-03-21T08:44:04.873Z,3.10
2018-03-21T08:45:05.474Z,3.10
2018-03-21T08:46:05.099Z,3.10
2018-03-21T08:47:05.110Z,3.10
2018-03-21T08:48:04.988Z,3.10
2018-03-21T08:49:05.016Z,3.10
2018-03-21T08:50:05.032Z,3.10
2018-03-21T08:51:05.160Z,3.10
2018-03-21T08:52:05.656Z,3.10
2018-03-21T08:53:05.574Z,3.10
2018-03-21T08:54:04.949Z,3.00
2018-03-21T08:55:05.138Z,3.10
2018-03-21T08:56:05.120Z,3.10
2018-03-21T08:57:05.169Z,3.10
2018-03-21T08:58:04.970Z,3.10
2018-03-21T08:59:04.854Z,3.10
2018-03-21T09:00:04.800Z,3.10
2018-03-21T09:01:04.871Z,3.20
2018-03-21T09:02:05.033Z,3.20
2018-03-21T09:03:05.047Z,3.20
2018-03-21T09:04:04.984Z,3.20
2018-03-21T09:05:05.113Z,3.30
2018-03-21T09:06:05.282Z,3.30
2018-03-21T09:07:05.456Z,3.30
2018-03-21T09:08:04.671Z,3.30
2018-03-21T09:09:05.354Z,3.30
2018-03-21T09:10:05.391Z,3.30
2018-03-21T09:11:04.870Z,3.40
2018-03-21T09:12:04.857Z,3.40
2018-03-21T09:13:04.687Z,3.40
2018-03-21T09:14:04.656Z,3.40
2018-03-21T09:15:05.315Z,3.40
2018-03-21T09:16:04.719Z,3.40
2018-03-21T09:17:05.700Z,3.40
2018-03-21T09:18:04.990Z,3.50
2018-03-21T09:19:05.130Z,3.50
2018-03-21T09:20:05.185Z,3.50
2018-03-21T09:21:04.864Z,3.50
2018-03-21T09:22:05.434Z,3.60
2018-03-21T09:23:05.280Z,3.60
2018-03-21T09:24:05.243Z,3.60
2018-03-21T09:25:05.612Z,3.60
2018-03-21T09:26:06.086Z,3.60
2018-03-21T09:27:04.763Z,3.60
2018-03-21T09:28:05.500Z,3.70
2018-03-21T09:29:05.369Z,3.70
2018-03-21T09:30:05.176Z,3.70
2018-03-21T09:31:05.225Z,3.70
2018-03-21T09:32:04.938Z,3.70
2018-03-21T09:33:05.582Z,3.70
2018-03-21T09:34:05.467Z,3.70
2018-03-21T09:35:04.720Z,3.70
2018-03-21T09:36:04.701Z,3.70
2018-03-21T09:37:05.624Z,3.70
2018-03-21T09:38:04.894Z,3.70
2018-03-21T09:39:05.008Z,3.70
2018-03-21T09:40:05.130Z,3.70
2018-03-21T09:41:04.832Z,3.70
2018-03-21T09:42:05.539Z,3.70
2018-03-21T09:43:04.914Z,3.80
2018-03-21T09:44:05.257Z,3.80
2018-03-21T09:45:05.087Z,3.80
2018-03-21T09:46:05.014Z,3.80
2018-03-21T09:47:06.176Z,3.80
2018-03-21T09:48:05.406Z,3.80
2018-03-21T09:49:05.576Z,3.90
2018-03-21T09:50:05.758Z,3.90
2018-03-21T09:51:05.105Z,3.90
2018-03-21T09:52:05.445Z,3.90
2018-03-21T09:53:05.599Z,3.90
2018-03-21T09:54:05.606Z,4.00
2018-03-21T09:55:06.675Z,4.00
2018-03-21T09:56:05.139Z,4.00
2018-03-21T09:57:04.930Z,4.00
2018-03-21T09:58:04.868Z,4.00
2018-03-21T09:59:04.779Z,4.00
2018-03-21T10:00:05.160Z,4.00
2018-03-21T10:01:04.862Z,4.10
2018-03-21T10:02:05.035Z,4.10
2018-03-21T10:03:05.023Z,4.10
2018-03-21T10:04:05.356Z,4.10
2018-03-21T10:05:05.188Z,4.10
2018-03-21T10:06:05.020Z,4.10
2018-03-21T10:07:04.809Z,4.20
2018-03-21T10:08:05.452Z,4.20
2018-03-21T10:09:05.249Z,4.20
2018-03-21T10:10:05.543Z,4.20
2018-03-21T10:11:05.155Z,4.30
2018-03-21T10:12:04.756Z,4.30
2018-03-21T10:13:05.621Z,4.30
2018-03-21T10:14:04.937Z,4.40
2018-03-21T10:15:05.237Z,4.40
2018-03-21T10:16:04.797Z,4.50
2018-03-21T10:17:04.894Z,4.50
2018-03-21T10:18:06.664Z,4.50
2018-03-21T10:19:05.426Z,4.50
2018-03-21T10:20:04.737Z,4.50
2018-03-21T10:21:05.408Z,4.60
2018-03-21T10:22:04.918Z,4.60
2018-03-21T10:23:04.691Z,4.60
2018-03-21T10:24:04.813Z,4.60
2018-03-21T10:25:05.325Z,4.60
2018-03-21T10:26:05.151Z,4.60
2018-03-21T10:27:05.075Z,4.60
2018-03-21T10:28:05.304Z,4.60
2018-03-21T10:29:05.284Z,4.70
2018-03-21T10:30:05.287Z,4.70
2018-03-21T10:31:05.110Z,4.70
2018-03-21T10:32:04.845Z,4.70
2018-03-21T10:33:05.069Z,4.70
2018-03-21T10:34:04.808Z,4.70
2018-03-21T10:35:04.712Z,4.80
2018-03-21T10:36:05.654Z,4.80
2018-03-21T10:37:05.697Z,4.80
2018-03-21T10:38:05.646Z,4.80
2018-03-21T10:39:05.407Z,4.80
2018-03-21T10:40:05.610Z,4.80
2018-03-21T10:41:05.081Z,4.80
2018-03-21T10:42:04.876Z,4.80
2018-03-21T10:43:05.868Z,4.80
2018-03-21T10:44:05.197Z,4.80
2018-03-21T10:45:05.197Z,4.80
2018-03-21T10:46:04.745Z,4.80
2018-03-21T10:47:05.117Z,4.80
2018-03-21T10:48:05.077Z,4.80
2018-03-21T10:49:04.891Z,4.80
2018-03-21T10:50:05.641Z,4.80
2018-03-21T10:51:04.775Z,4.80
2018-03-21T10:52:04.787Z,4.80
2018-03-21T10:53:05.319Z,4.80
2018-03-21T10:54:04.967Z,4.80
2018-03-21T10:55:05.557Z,4.70
2018-03-21T10:56:05.355Z,4.70
2018-03-21T10:57:05.322Z,4.70
2018-03-21T10:58:05.476Z,4.70
2018-03-21T10:59:05.666Z,4.70
2018-03-21T11:00:04.767Z,4.70
2018-03-21T11:01:04.796Z,4.70
2018-03-21T11:02:04.767Z,4.70
2018-03-21T11:03:04.998Z,4.80
2018-03-21T11:04:04.782Z,4.80
2018-03-21T11:05:05.461Z,4.80
2018-03-21T11:06:05.188Z,4.80
2018-03-21T11:07:05.261Z,4.80
2018-03-21T11:08:09.819Z,4.80
2018-03-21T11:09:05.435Z,4.80
2018-03-21T11:10:05.200Z,4.80
2018-03-21T11:11:04.943Z,4.80
2018-03-21T11:12:04.852Z,4.80
2018-03-21T11:13:04.747Z,4.80
2018-03-21T11:14:05.509Z,4.70
2018-03-21T11:15:05.617Z,4.70
2018-03-21T11:16:05.636Z,4.70
2018-03-21T11:17:04.817Z,4.70
2018-03-21T11:18:04.770Z,4.70
2018-03-21T11:19:05.109Z,4.70
2018-03-21T11:20:05.105Z,4.70
2018-03-21T11:21:04.870Z,4.70
2018-03-21T11:22:04.719Z,4.70
2018-03-21T11:23:04.793Z,4.70
2018-03-21T11:24:05.043Z,4.70
2018-03-21T11:25:05.179Z,4.70
2018-03-21T11:26:04.745Z,4.70
2018-03-21T11:27:05.665Z,4.70
2018-03-21T11:28:04.787Z,4.70
2018-03-21T11:29:05.015Z,4.70
2018-03-21T11:30:05.540Z,4.70
2018-03-21T11:31:05.394Z,4.70
2018-03-21T11:32:04.708Z,4.80
2018-03-21T11:33:05.600Z,4.70
2018-03-21T11:34:05.381Z,4.70
2018-03-21T11:35:05.565Z,4.70
2018-03-21T11:36:05.341Z,4.60
2018-03-21T11:37:05.333Z,4.60
2018-03-21T11:38:05.140Z,4.60
2018-03-21T11:39:05.037Z,4.60
2018-03-21T11:40:04.826Z,4.60
2018-03-21T11:41:05.459Z,4.60
2018-03-21T11:42:05.416Z,4.60
2018-03-21T11:43:05.351Z,4.60
2018-03-21T11:44:04.946Z,4.50
2018-03-21T11:45:04.730Z,4.50
2018-03-21T11:46:05.612Z,4.40
2018-03-21T11:47:04.638Z,4.40
2018-03-21T11:48:05.506Z,4.40
2018-03-21T11:49:05.367Z,4.50
2018-03-21T11:50:05.349Z,4.50
2018-03-21T11:51:05.255Z,4.50
2018-03-21T11:52:05.545Z,4.50
2018-03-21T11:53:05.393Z,4.50
2018-03-21T11:54:05.009Z,4.50
2018-03-21T11:55:05.082Z,4.60
2018-03-21T11:56:05.415Z,4.60
2018-03-21T11:57:05.296Z,4.60
2018-03-21T11:58:05.640Z,4.70
2018-03-21T11:59:05.310Z,4.60
2018-03-21T12:00:05.586Z,4.60
2018-03-21T12:01:05.478Z,4.60
2018-03-21T12:02:05.172Z,4.60
2018-03-21T12:03:04.823Z,4.70
2018-03-21T12:04:04.835Z,4.70
2018-03-21T12:05:05.576Z,4.70
2018-03-21T12:06:04.759Z,4.70
2018-03-21T12:07:04.980Z,4.70
2018-03-21T12:08:05.664Z,4.80
2018-03-21T12:09:05.419Z,4.80
2018-03-21T12:10:05.442Z,4.80
2018-03-21T12:11:05.033Z,4.80
2018-03-21T12:12:04.791Z,4.80
2018-03-21T12:13:05.803Z,4.80
2018-03-21T12:14:05.664Z,4.80
2018-03-21T12:15:05.606Z,4.80
2018-03-21T12:16:05.315Z,4.90
2018-03-21T12:17:04.799Z,4.90
2018-03-21T12:18:04.949Z,4.90
2018-03-21T12:19:05.271Z,4.90
2018-03-21T12:20:05.580Z,4.90
2018-03-21T12:21:05.568Z,4.90
2018-03-21T12:22:05.635Z,4.90
2018-03-21T12:23:05.204Z,4.90
2018-03-21T12:24:05.554Z,4.90
2018-03-21T12:25:05.360Z,4.90
2018-03-21T12:26:04.950Z,4.80
2018-03-21T12:27:05.610Z,4.80
2018-03-21T12:28:04.775Z,4.80
2018-03-21T12:29:05.280Z,4.80
2018-03-21T12:30:04.973Z,4.70
2018-03-21T12:31:04.939Z,4.70
2018-03-21T12:32:04.968Z,4.70
2018-03-21T12:33:04.954Z,4.70
2018-03-21T12:34:04.739Z,4.70
2018-03-21T12:35:05.490Z,4.70
2018-03-21T12:36:05.655Z,4.70
2018-03-21T12:37:05.413Z,4.60
2018-03-21T12:38:05.433Z,4.60
2018-03-21T12:39:05.212Z,4.60
2018-03-21T12:40:05.222Z,4.60
2018-03-21T12:41:05.437Z,4.60
2018-03-21T12:42:04.947Z,4.60
2018-03-21T12:43:04.771Z,4.60
2018-03-21T12:44:04.944Z,4.60
2018-03-21T12:45:05.141Z,4.70
2018-03-21T12:46:05.244Z,4.70
2018-03-21T12:47:09.973Z,4.70
2018-03-21T12:48:05.104Z,4.70
2018-03-21T12:49:05.199Z,4.70
2018-03-21T12:50:04.894Z,4.80
2018-03-21T12:51:04.999Z,4.80
2018-03-21T12:52:04.875Z,4.80
2018-03-21T12:53:05.660Z,4.80
2018-03-21T12:54:05.623Z,4.80
2018-03-21T12:55:05.134Z,4.80
2018-03-21T12:56:04.970Z,4.80
2018-03-21T12:57:04.972Z,4.90
2018-03-21T12:58:05.434Z,4.90
2018-03-21T12:59:04.725Z,4.90
2018-03-21T13:00:05.610Z,4.90
2018-03-21T13:01:05.709Z,4.90
2018-03-21T13:02:04.949Z,4.90
2018-03-21T13:03:04.804Z,4.90